Amador Station, California
Current Conditions -  °F | °C
As of 10:55 PM on Sunday 21 Dec 2014 (Local Time) from KPVF Reporting Station
Clear Clear  
Wind Chill: 50°   Ceiling: Unl
Heat Index: 50°   Visibility: 10mi
Dew Point: 48°   Wind: 5mph
Humidity: 94%   Direction: 360°N
Pressure: 30.29"   Gusts: NA
Location:  38.5644°N, 120.32°W
Report Text: KPVF 220655Z AUTO 36004KT 10SM CLR 10/09 A3029 RMK AO1
Loading
Personal Weather Stations






























Interactive Weather Map New forecast layout! Learn more

10-Day Weather Forecast

Advertisements
Track Severe Weather on mobile